createdAt,value
2023-04-15T00:00:45.869Z,99501.72
2023-04-15T00:03:54.532Z,99501.67
2023-04-15T00:06:59.325Z,99500.08
2023-04-15T00:10:04.503Z,99500.93
2023-04-15T00:13:08.485Z,99499.59
2023-04-15T00:16:12.467Z,99496.24
2023-04-15T00:19:16.425Z,99498.85
2023-04-15T00:22:20.434Z,99496.36
2023-04-15T00:25:24.651Z,99497.89
2023-04-15T00:28:28.733Z,99498.82
2023-04-15T00:31:32.998Z,99496.67
2023-04-15T00:34:37.721Z,99495.33
2023-04-15T00:37:42.159Z,99495.39
2023-04-15T00:40:46.890Z,99488.34
2023-04-15T00:43:50.997Z,99489.48
2023-04-15T00:46:55.729Z,99484.02
2023-04-15T00:49:59.630Z,99488.45
2023-04-15T00:53:03.662Z,99486.80
2023-04-15T00:56:07.969Z,99488.66
2023-04-15T00:59:12.621Z,99492.17
2023-04-15T01:02:18.078Z,99489.39
2023-04-15T01:05:22.365Z,99488.16
2023-04-15T01:08:30.503Z,99490.70
2023-04-15T01:11:35.496Z,99488.66
2023-04-15T01:14:39.660Z,99488.47
2023-04-15T01:17:43.930Z,99487.85
2023-04-15T01:20:48.100Z,99496.52
2023-04-15T01:23:56.887Z,99499.10
2023-04-15T01:27:01.205Z,99496.24
2023-04-15T01:30:06.552Z,99500.30
2023-04-15T01:33:10.608Z,99500.42
2023-04-15T01:36:15.855Z,99499.48
2023-04-15T01:39:19.803Z,99497.16
2023-04-15T01:42:24.854Z,99498.21
2023-04-15T01:45:28.840Z,99496.71
2023-04-15T01:48:33.564Z,99497.98
2023-04-15T01:51:37.557Z,99495.40
2023-04-15T01:54:41.801Z,99498.77
2023-04-15T01:57:46.655Z,99496.20
2023-04-15T02:00:50.816Z,99497.46
2023-04-15T02:03:54.999Z,99495.77
2023-04-15T02:06:59.197Z,99493.72
2023-04-15T02:10:04.236Z,99491.11
2023-04-15T02:13:08.756Z,99493.15
2023-04-15T02:16:19.277Z,99489.95
2023-04-15T02:19:23.450Z,99487.88
2023-04-15T02:22:27.980Z,99488.66
2023-04-15T02:25:31.863Z,99489.55
2023-04-15T02:28:36.002Z,99486.54
2023-04-15T02:31:42.242Z,99489.83
2023-04-15T02:34:46.584Z,99487.41
2023-04-15T02:37:51.012Z,99485.95
2023-04-15T02:40:55.549Z,99483.42
2023-04-15T02:43:59.570Z,99485.42
2023-04-15T02:47:05.005Z,99484.46
2023-04-15T02:50:12.677Z,99484.63
2023-04-15T02:53:17.792Z,99479.54
2023-04-15T02:56:23.412Z,99478.52
2023-04-15T02:59:27.621Z,99479.80
2023-04-15T03:02:37.049Z,99478.77
2023-04-15T03:05:41.600Z,99476.64
2023-04-15T03:08:45.835Z,99479.71
2023-04-15T03:11:51.670Z,99478.33
2023-04-15T03:14:56.823Z,99478.35
2023-04-15T03:18:04.735Z,99480.95
2023-04-15T03:21:08.911Z,99482.09
2023-04-15T03:24:13.581Z,99480.86
2023-04-15T03:27:17.713Z,99481.56
2023-04-15T03:30:22.857Z,99476.63
2023-04-15T03:33:27.928Z,99479.99
2023-04-15T03:36:33.326Z,99479.70
2023-04-15T03:39:37.758Z,99479.67
2023-04-15T03:42:41.678Z,99482.93
2023-04-15T03:45:45.896Z,99482.46
2023-04-15T03:48:49.905Z,99487.13
2023-04-15T03:51:54.109Z,99484.28
2023-04-15T03:54:58.142Z,99485.85
2023-04-15T03:58:02.358Z,99486.43
2023-04-15T04:01:06.377Z,99485.73
2023-04-15T04:04:11.064Z,99491.80
2023-04-15T04:07:18.486Z,99491.33
2023-04-15T04:10:22.525Z,99496.98
2023-04-15T04:13:26.538Z,99494.70
2023-04-15T04:16:30.598Z,99490.73
2023-04-15T04:19:34.985Z,99496.38
2023-04-15T04:22:40.181Z,99494.55
2023-04-15T04:25:44.246Z,99495.54
2023-04-15T04:28:48.260Z,99494.70
2023-04-15T04:31:52.222Z,99496.59
2023-04-15T04:34:56.585Z,99493.39
2023-04-15T04:38:01.404Z,99497.48
2023-04-15T04:41:05.487Z,99499.46
2023-04-15T04:44:09.388Z,99494.69
2023-04-15T04:47:14.119Z,99496.23
2023-04-15T04:50:18.207Z,99493.48
2023-04-15T04:53:22.299Z,99497.13
2023-04-15T04:56:26.271Z,99492.70
2023-04-15T04:59:30.251Z,99492.10
2023-04-15T05:02:34.739Z,99491.65
2023-04-15T05:05:41.254Z,99492.39
2023-04-15T05:08:46.706Z,99496.70
2023-04-15T05:11:50.719Z,99497.34
2023-04-15T05:14:54.635Z,99497.66
2023-04-15T05:17:58.819Z,99496.07
2023-04-15T05:21:03.176Z,99500.63
2023-04-15T05:24:07.126Z,99501.85
2023-04-15T05:27:12.033Z,99501.75
2023-04-15T05:30:16.253Z,99503.34
2023-04-15T05:33:20.266Z,99501.23
2023-04-15T05:36:24.282Z,99503.48
2023-04-15T05:39:28.200Z,99503.13
2023-04-15T05:42:32.324Z,99504.61
2023-04-15T05:45:36.530Z,99506.25
2023-04-15T05:48:40.549Z,99509.80
2023-04-15T05:51:44.448Z,99508.14
2023-04-15T05:54:48.373Z,99506.23
2023-04-15T05:57:52.594Z,99505.63
2023-04-15T06:00:57.007Z,99508.75
2023-04-15T06:04:01.067Z,99508.61
2023-04-15T06:07:05.261Z,99508.34
2023-04-15T06:10:10.151Z,99510.60
2023-04-15T06:13:14.149Z,99515.11
2023-04-15T06:16:18.084Z,99518.27
2023-04-15T06:19:22.067Z,99518.88
2023-04-15T06:22:26.353Z,99521.87
2023-04-15T06:25:30.566Z,99524.35
2023-04-15T06:28:34.681Z,99527.73
2023-04-15T06:31:38.730Z,99522.02
2023-04-15T06:34:42.832Z,99526.01
2023-04-15T06:37:46.776Z,99526.70
2023-04-15T06:40:51.169Z,99526.21
2023-04-15T06:43:55.296Z,99529.39
2023-04-15T06:46:59.303Z,99534.08
2023-04-15T06:50:04.138Z,99535.17
2023-04-15T06:53:08.158Z,99534.73
2023-04-15T06:56:12.120Z,99536.79
2023-04-15T06:59:16.190Z,99536.19
2023-04-15T07:02:20.775Z,99539.02
2023-04-15T07:05:25.645Z,99544.71
2023-04-15T07:08:29.666Z,99544.06
2023-04-15T07:11:33.868Z,99548.19
2023-04-15T07:14:37.792Z,99553.01
2023-04-15T07:17:43.374Z,99554.23
2023-04-15T07:20:48.215Z,99557.56
2023-04-15T07:23:52.502Z,99556.02
2023-04-15T07:27:00.809Z,99558.84
2023-04-15T07:30:06.560Z,99555.59
2023-04-15T07:33:11.113Z,99557.80
2023-04-15T07:36:15.551Z,99559.06
2023-04-15T07:39:19.568Z,99556.50
2023-04-15T07:42:23.661Z,99558.20
2023-04-15T07:45:27.993Z,99555.30
2023-04-15T07:48:32.154Z,99554.81
2023-04-15T07:51:36.188Z,99549.70
2023-04-15T07:54:40.144Z,99556.09
2023-04-15T07:57:44.162Z,99553.09
2023-04-15T08:00:48.101Z,99555.67
2023-04-15T08:03:52.771Z,99552.37
2023-04-15T08:06:56.925Z,99556.73
2023-04-15T08:10:01.248Z,99552.55
2023-04-15T08:13:05.308Z,99556.71
2023-04-15T08:16:30.553Z,99557.65
2023-04-15T08:19:34.683Z,99553.21
2023-04-15T08:22:39.184Z,99549.02
2023-04-15T08:25:43.138Z,99552.23
2023-04-15T08:28:47.414Z,99556.69
2023-04-15T08:31:51.936Z,99557.80
2023-04-15T08:34:56.202Z,99558.42
2023-04-15T08:38:00.630Z,99558.04
2023-04-15T08:41:18.780Z,99561.23
2023-04-15T08:44:25.226Z,99563.81
2023-04-15T08:47:31.852Z,99561.30
2023-04-15T08:50:35.948Z,99565.95
2023-04-15T08:53:39.963Z,99566.34
2023-04-15T08:56:44.785Z,99565.98
2023-04-15T08:59:49.673Z,99564.94
2023-04-15T09:02:54.578Z,99563.71
2023-04-15T09:05:59.919Z,99565.95
2023-04-15T09:09:04.215Z,99567.83
2023-04-15T09:12:09.145Z,99566.73
2023-04-15T09:15:13.710Z,99566.06
2023-04-15T09:18:35.029Z,99566.61
2023-04-15T09:21:39.657Z,99569.67
2023-04-15T09:24:44.091Z,99566.48
2023-04-15T09:27:52.943Z,99571.71
2023-04-15T09:31:01.393Z,99569.45
2023-04-15T09:34:07.081Z,99571.94
2023-04-15T09:37:20.712Z,99570.67
2023-04-15T09:40:37.316Z,99574.38
2023-04-15T09:43:41.863Z,99577.85
2023-04-15T09:46:46.285Z,99578.06
2023-04-15T09:50:01.015Z,99581.09
2023-04-15T09:53:05.075Z,99581.52
2023-04-15T09:56:10.599Z,99584.63
2023-04-15T09:59:14.651Z,99585.29
2023-04-15T10:02:20.920Z,99590.80
2023-04-15T10:05:25.978Z,99592.70
2023-04-15T10:08:33.129Z,99591.23
2023-04-15T10:11:37.780Z,99592.58
2023-04-15T10:14:43.107Z,99597.87
2023-04-15T10:17:51.126Z,99593.84
2023-04-15T10:20:55.639Z,99593.02
2023-04-15T10:24:02.244Z,99596.88
2023-04-15T10:27:07.456Z,99597.20
2023-04-15T10:30:12.608Z,99599.60
2023-04-15T10:33:23.485Z,99598.14
2023-04-15T10:36:27.627Z,99603.42
2023-04-15T10:39:34.600Z,99600.67
2023-04-15T10:42:38.718Z,99600.40
2023-04-15T10:45:45.196Z,99602.09
2023-04-15T10:48:53.714Z,99601.98
2023-04-15T10:51:59.135Z,99603.05
2023-04-15T10:55:16.606Z,99604.27
2023-04-15T10:58:25.214Z,99603.38
2023-04-15T11:01:55.055Z,99610.88
2023-04-15T11:04:59.244Z,99610.77
2023-04-15T11:08:03.579Z,99608.82
2023-04-15T11:11:07.749Z,99609.45
2023-04-15T11:14:16.348Z,99611.00
2023-04-15T11:17:29.774Z,99613.56
2023-04-15T11:20:34.244Z,99617.34
2023-04-15T11:23:39.512Z,99615.29
2023-04-15T11:26:43.466Z,99616.63
2023-04-15T11:29:47.366Z,99615.76
2023-04-15T11:32:53.150Z,99613.77
2023-04-15T11:35:57.230Z,99622.26
2023-04-15T11:39:01.262Z,99625.94
2023-04-15T11:42:16.481Z,99630.34
2023-04-15T11:45:20.434Z,99630.92
2023-04-15T11:48:35.780Z,99628.63
2023-04-15T11:51:39.849Z,99630.98
2023-04-15T11:54:43.827Z,99631.20
2023-04-15T11:57:47.756Z,99633.63
2023-04-15T12:00:55.765Z,99636.31
2023-04-15T12:04:01.797Z,99633.27
2023-04-15T12:07:07.726Z,99633.35
2023-04-15T12:10:11.806Z,99639.96
2023-04-15T12:13:16.462Z,99643.42
2023-04-15T12:16:21.708Z,99644.69
2023-04-15T12:19:28.861Z,99648.58
2023-04-15T12:22:38.072Z,99649.98
2023-04-15T12:25:42.140Z,99651.93
2023-04-15T12:28:46.981Z,99656.60
2023-04-15T12:31:56.720Z,99657.64
2023-04-15T12:35:00.738Z,99659.20
2023-04-15T12:38:04.757Z,99661.29
2023-04-15T12:41:08.720Z,99661.54
2023-04-15T12:44:12.778Z,99657.55
2023-04-15T12:47:17.054Z,99658.87
2023-04-15T12:50:21.245Z,99656.75
2023-04-15T12:53:26.473Z,99661.29
2023-04-15T12:56:30.410Z,99666.86
2023-04-15T12:59:35.764Z,99664.03
2023-04-15T13:02:40.062Z,99667.44
2023-04-15T13:05:44.382Z,99664.02
2023-04-15T13:08:57.938Z,99666.63
2023-04-15T13:12:03.171Z,99672.21
2023-04-15T13:15:10.862Z,99677.71
2023-04-15T13:18:14.884Z,99680.47
2023-04-15T13:21:20.062Z,99691.98
2023-04-15T13:24:23.998Z,99692.50
2023-04-15T13:27:27.938Z,99698.75
2023-04-15T13:30:31.955Z,99698.87
2023-04-15T13:33:36.604Z,99703.16
2023-04-15T13:36:41.039Z,99704.89
2023-04-15T13:39:45.040Z,99709.48
2023-04-15T13:42:48.981Z,99710.49
2023-04-15T13:45:52.976Z,99708.52
2023-04-15T13:48:56.955Z,99712.49
2023-04-15T13:52:00.912Z,99709.88
2023-04-15T13:55:08.759Z,99705.41
2023-04-15T13:58:23.900Z,99703.02
2023-04-15T14:01:28.626Z,99696.64
2023-04-15T14:04:32.706Z,99700.38
2023-04-15T14:07:37.366Z,99693.89
2023-04-15T14:10:44.388Z,99701.56
2023-04-15T14:13:48.358Z,99707.51
2023-04-15T14:16:52.558Z,99715.02
2023-04-15T14:19:56.593Z,99714.85
2023-04-15T14:23:01.030Z,99707.34
2023-04-15T14:26:05.297Z,99705.34
2023-04-15T14:29:09.437Z,99707.37
2023-04-15T14:32:14.739Z,99706.59
2023-04-15T14:35:20.235Z,99702.54
2023-04-15T14:38:24.287Z,99698.64
2023-04-15T14:41:28.300Z,99705.52
2023-04-15T14:47:41.306Z,99708.63
2023-04-15T14:50:45.465Z,99709.02
2023-04-15T14:53:49.481Z,99714.59
2023-04-15T14:56:53.407Z,99718.65
2023-04-15T14:59:57.409Z,99724.77
2023-04-15T15:03:01.972Z,99724.69
2023-04-15T15:06:06.119Z,99737.58
2023-04-15T15:09:10.167Z,99744.21
2023-04-15T15:12:14.137Z,99742.22
2023-04-15T15:15:28.455Z,99739.80
2023-04-15T15:18:32.976Z,99742.24
2023-04-15T15:21:37.603Z,99743.87
2023-04-15T15:24:41.716Z,99744.73
2023-04-15T15:27:46.008Z,99748.79
2023-04-15T15:30:50.064Z,99747.65
2023-04-15T15:33:54.169Z,99750.39
2023-04-15T15:36:58.136Z,99752.90
2023-04-15T15:40:04.742Z,99749.13
2023-04-15T15:43:08.844Z,99747.63
2023-04-15T15:46:12.967Z,99753.04
2023-04-15T15:49:17.017Z,99760.17
2023-04-15T15:52:21.239Z,99760.73
2023-04-15T15:55:27.325Z,99766.89
2023-04-15T15:58:31.521Z,99765.55
2023-04-15T16:01:35.743Z,99772.46
2023-04-15T16:04:40.165Z,99776.48
2023-04-15T16:07:44.390Z,99781.23
2023-04-15T16:10:48.741Z,99778.32
2023-04-15T16:13:52.731Z,99783.86
2023-04-15T16:16:57.079Z,99789.13
2023-04-15T16:20:05.655Z,99796.30
2023-04-15T16:23:15.171Z,99797.19
2023-04-15T16:26:19.515Z,99798.85
2023-04-15T16:29:23.461Z,99803.36
2023-04-15T16:32:27.515Z,99806.31
2023-04-15T16:35:32.814Z,99806.72
2023-04-15T16:38:38.457Z,99816.48
2023-04-15T16:41:43.004Z,99814.13
2023-04-15T16:44:46.913Z,99814.56
2023-04-15T16:47:51.103Z,99815.29
2023-04-15T16:50:55.155Z,99819.71
2023-04-15T16:53:59.161Z,99828.94
2023-04-15T16:57:03.481Z,99839.40
2023-04-15T17:00:08.563Z,99836.84
2023-04-15T17:03:12.697Z,99840.99
2023-04-15T17:06:16.967Z,99842.66
2023-04-15T17:09:21.186Z,99840.88
2023-04-15T17:12:25.201Z,99842.32
2023-04-15T17:15:29.194Z,99852.92
2023-04-15T17:18:33.233Z,99851.52
2023-04-15T17:21:37.442Z,99852.70
2023-04-15T17:24:41.825Z,99853.66
2023-04-15T17:27:45.901Z,99853.89
2023-04-15T17:30:49.980Z,99858.19
2023-04-15T17:34:02.589Z,99865.86
2023-04-15T17:37:13.285Z,99879.36
2023-04-15T17:40:17.368Z,99880.56
2023-04-15T17:43:21.327Z,99888.47
2023-04-15T17:46:25.446Z,99892.10
2023-04-15T17:49:30.814Z,99901.90
2023-04-15T17:52:34.861Z,99908.39
2023-04-15T17:55:38.813Z,99918.73
2023-04-15T17:58:43.420Z,99934.25
2023-04-15T18:01:47.453Z,99936.66
2023-04-15T18:04:51.703Z,99943.89
2023-04-15T18:07:55.925Z,99952.14
2023-04-15T18:10:59.936Z,99951.70
2023-04-15T18:14:04.470Z,99950.78
2023-04-15T18:17:08.658Z,99952.96
2023-04-15T18:20:13.129Z,99958.14
2023-04-15T18:23:17.121Z,99961.92
2023-04-15T18:26:21.996Z,99964.67
2023-04-15T18:29:26.163Z,99964.75
2023-04-15T18:32:32.987Z,99962.27
2023-04-15T18:35:37.067Z,99960.65
2023-04-15T18:38:41.194Z,99965.30
2023-04-15T18:41:45.096Z,99966.98
2023-04-15T18:44:50.342Z,99972.56
2023-04-15T18:47:54.703Z,99967.16
2023-04-15T18:50:58.904Z,99974.60
2023-04-15T18:54:02.920Z,99980.50
2023-04-15T18:57:07.039Z,99985.77
2023-04-15T19:00:12.536Z,99994.21
2023-04-15T19:03:16.690Z,99993.92
2023-04-15T19:06:22.286Z,100002.14
2023-04-15T19:09:26.837Z,100007.41
2023-04-15T19:12:31.006Z,100010.98
2023-04-15T19:15:35.000Z,100016.87
2023-04-15T19:18:38.932Z,100023.73
2023-04-15T19:21:43.156Z,100029.79
2023-04-15T19:24:47.168Z,100032.38
2023-04-15T19:27:51.359Z,100034.44
2023-04-15T19:30:55.372Z,100036.00
2023-04-15T19:33:59.423Z,100040.78
2023-04-15T19:37:03.381Z,100043.94
2023-04-15T19:40:09.439Z,100051.65
2023-04-15T19:43:13.354Z,100054.92
2023-04-15T19:46:17.695Z,100054.63
2023-04-15T19:49:22.171Z,100059.08
2023-04-15T19:52:26.319Z,100060.21
2023-04-15T19:55:30.500Z,100063.14
2023-04-15T19:58:34.487Z,100062.39
2023-04-15T20:01:38.667Z,100064.08
2023-04-15T20:04:42.873Z,100066.20
2023-04-15T20:07:48.858Z,100068.84
2023-04-15T20:10:52.885Z,100070.13
2023-04-15T20:13:57.163Z,100072.59
2023-04-15T20:17:01.177Z,100070.02
2023-04-15T20:20:06.292Z,100066.84
2023-04-15T20:23:10.324Z,100063.75
2023-04-15T20:26:14.345Z,100063.61
2023-04-15T20:29:18.364Z,100058.93
2023-04-15T20:32:24.405Z,100057.73
2023-04-15T20:35:31.034Z,100057.59
2023-04-15T20:38:35.124Z,100053.65
2023-04-15T20:41:39.144Z,100050.41
2023-04-15T20:44:43.150Z,100056.66
2023-04-15T20:47:47.145Z,100055.16
2023-04-15T20:50:51.489Z,100060.04
2023-04-15T20:53:55.714Z,100059.10
2023-04-15T20:57:01.357Z,100068.30
2023-04-15T21:00:06.582Z,100068.19
2023-04-15T21:03:12.040Z,100070.12
2023-04-15T21:06:16.387Z,100071.04
2023-04-15T21:09:20.354Z,100072.53
2023-04-15T21:12:24.421Z,100073.43
2023-04-15T21:15:28.791Z,100074.13
2023-04-15T21:18:32.761Z,100075.51
2023-04-15T21:21:36.797Z,100078.96
2023-04-15T21:24:40.990Z,100079.25
2023-04-15T21:27:44.999Z,100083.86
2023-04-15T21:30:49.644Z,100086.46
2023-04-15T21:33:54.243Z,100085.77
2023-04-15T21:36:58.166Z,100083.00
2023-04-15T21:40:02.573Z,100088.22
2023-04-15T21:43:07.626Z,100089.33
2023-04-15T21:46:23.576Z,100086.02
2023-04-15T21:49:29.202Z,100087.73
2023-04-15T21:52:33.678Z,100092.95
2023-04-15T21:55:37.627Z,100095.86
2023-04-15T21:58:41.630Z,100096.22
2023-04-15T22:01:45.706Z,100098.02
2023-04-15T22:04:50.093Z,100107.42
2023-04-15T22:07:54.018Z,100107.73
2023-04-15T22:10:58.016Z,100116.59
2023-04-15T22:14:02.042Z,100125.29
2023-04-15T22:17:06.830Z,100124.00
2023-04-15T22:20:11.087Z,100123.36
2023-04-15T22:23:17.513Z,100127.76
2023-04-15T22:26:21.668Z,100125.84
2023-04-15T22:29:26.205Z,100131.78
2023-04-15T22:32:30.298Z,100134.34
2023-04-15T22:35:36.198Z,100137.45
2023-04-15T22:38:40.195Z,100136.02
2023-04-15T22:41:45.161Z,100145.39
2023-04-15T22:44:50.576Z,100142.73
2023-04-15T22:47:54.634Z,100138.20
2023-04-15T22:50:58.717Z,100140.37
2023-04-15T22:54:03.311Z,100141.70
2023-04-15T22:57:07.252Z,100140.27
2023-04-15T23:00:12.271Z,100142.95
2023-04-15T23:03:16.420Z,100146.27
2023-04-15T23:06:21.561Z,100145.70
2023-04-15T23:09:25.496Z,100145.38
2023-04-15T23:12:29.436Z,100152.94
2023-04-15T23:15:33.360Z,100151.10
2023-04-15T23:18:37.316Z,100155.37
2023-04-15T23:21:41.331Z,100154.14
2023-04-15T23:24:45.551Z,100151.81
2023-04-15T23:27:49.492Z,100148.77
2023-04-15T23:30:53.459Z,100147.31
2023-04-15T23:33:57.398Z,100148.80
2023-04-15T23:37:01.412Z,100149.89
2023-04-15T23:40:06.424Z,100153.58
2023-04-15T23:43:10.589Z,100155.48
2023-04-15T23:46:14.632Z,100152.64
2023-04-15T23:49:20.253Z,100152.73
2023-04-15T23:52:24.753Z,100152.67
2023-04-15T23:55:30.618Z,100151.85
2023-04-15T23:58:34.822Z,100152.90
